Time;durP1;ratioP1;P1;durP2;ratioP2;P2;SDS_P1;SDS_P2;PMS_P1;PMS_P2;Temp;Humidity;BMP_temperature;BMP_pressure;BME280_temperature;BME280_humidity;BME280_pressure;Samples;Min_cycle;Max_cycle;Signal;HPM_P1;HPM_P2
2022/08/29 00:00:46;;;;;;;8.57;2.63;;;;;;;;;;5020515;28;20560;-91
2022/08/29 00:03:12;;;;;;;9.00;2.78;;;;;;;;;;5007077;28;20633;-93
2022/08/29 00:05:38;;;;;;;13.93;4.63;;;;;;;;;;5009425;28;20038;-92
2022/08/29 00:08:05;;;;;;;9.52;3.03;;;;;;;;;;5019567;28;20105;-92
2022/08/29 00:10:32;;;;;;;6.93;2.72;;;;;;;;;;5019681;28;20140;-93
2022/08/29 00:12:58;;;;;;;10.65;2.65;;;;;;;;;;5021347;28;20025;-92
2022/08/29 00:15:25;;;;;;;7.38;2.75;;;;;;;;;;5021081;28;20021;-92
2022/08/29 00:17:51;;;;;;;8.98;2.58;;;;;;;;;;5012393;28;20561;-92
2022/08/29 00:20:20;;;;;;;7.15;2.50;;;;;;;;;;5002794;28;20060;-91
2022/08/29 00:22:46;;;;;;;12.82;2.40;;;;;;;;;;5019265;28;20028;-92
2022/08/29 00:25:14;;;;;;;9.85;2.90;;;;;;;;;;5008195;28;20037;-92
2022/08/29 00:27:40;;;;;;;8.57;2.47;;;;;;;;;;5021229;28;20025;-92
2022/08/29 00:30:07;;;;;;;7.93;2.65;;;;;;;;;;5010829;28;20115;-92
2022/08/29 00:32:35;;;;;;;7.97;2.67;;;;;;;;;;5011351;28;20535;-92
2022/08/29 00:35:05;;;;;;;7.75;2.50;;;;;;;;;;5021892;28;21164;-92
2022/08/29 00:37:31;;;;;;;8.15;2.20;;;;;;;;;;5026160;28;20052;-92
2022/08/29 00:39:58;;;;;;;9.25;2.80;;;;;;;;;;5018972;28;20037;-91
2022/08/29 00:42:24;;;;;;;7.25;2.85;;;;;;;;;;5022533;28;20056;-92
2022/08/29 00:44:50;;;;;;;5.25;2.03;;;;;;;;;;5021183;28;20365;-92
2022/08/29 00:47:18;;;;;;;8.73;2.92;;;;;;;;;;5010146;28;20033;-92
2022/08/29 00:49:45;;;;;;;9.23;2.92;;;;;;;;;;5022628;28;20053;-92
2022/08/29 00:52:27;;;;;;;7.03;2.33;;;;;;;;;;5023029;28;20026;-92
2022/08/29 00:54:55;;;;;;;6.65;2.30;;;;;;;;;;5029482;28;20056;-93
2022/08/29 00:57:21;;;;;;;17.23;4.00;;;;;;;;;;5020818;28;20036;-92
2022/08/29 00:59:48;;;;;;;12.38;3.42;;;;;;;;;;5013979;28;20075;-92
2022/08/29 01:02:14;;;;;;;6.88;2.80;;;;;;;;;;5009814;28;20084;-92
2022/08/29 01:04:40;;;;;;;9.75;2.53;;;;;;;;;;4987832;28;20183;-92
2022/08/29 01:07:07;;;;;;;10.20;2.65;;;;;;;;;;5004522;28;20529;-92
2022/08/29 01:09:35;;;;;;;11.60;2.65;;;;;;;;;;5020723;28;20101;-92
2022/08/29 01:12:16;;;;;;;12.38;3.13;;;;;;;;;;5000849;28;20029;-92
2022/08/29 01:14:54;;;;;;;8.55;2.22;;;;;;;;;;4991196;28;20037;-92
2022/08/29 01:17:42;;;;;;;5.22;2.03;;;;;;;;;;5003560;28;20052;-92
2022/08/29 01:20:27;;;;;;;8.20;2.00;;;;;;;;;;5004054;28;20056;-91
2022/08/29 01:22:53;;;;;;;9.20;2.00;;;;;;;;;;5010103;28;20029;-92
2022/08/29 01:25:21;;;;;;;8.80;2.45;;;;;;;;;;5001135;28;20029;-93
2022/08/29 01:27:51;;;;;;;11.52;2.45;;;;;;;;;;5009785;28;20505;-92
2022/08/29 01:30:17;;;;;;;6.10;2.22;;;;;;;;;;4997843;28;20041;-92
2022/08/29 01:32:43;;;;;;;8.52;2.83;;;;;;;;;;4988852;28;20301;-92
2022/08/29 01:35:09;;;;;;;5.57;1.95;;;;;;;;;;4992562;28;20060;-92
2022/08/29 01:37:36;;;;;;;6.95;2.28;;;;;;;;;;4988519;28;20037;-91
2022/08/29 01:40:03;;;;;;;6.20;1.90;;;;;;;;;;5000170;28;20034;-92
2022/08/29 01:42:30;;;;;;;13.13;2.53;;;;;;;;;;5001239;28;20056;-92
2022/08/29 01:44:57;;;;;;;7.32;3.00;;;;;;;;;;4994966;28;20492;-93
2022/08/29 01:47:25;;;;;;;7.43;2.28;;;;;;;;;;4998750;28;20056;-92
2022/08/29 01:49:51;;;;;;;8.23;2.42;;;;;;;;;;5001527;28;20034;-92
2022/08/29 01:52:17;;;;;;;6.95;1.90;;;;;;;;;;4992338;28;20029;-92
2022/08/29 01:54:44;;;;;;;10.80;2.53;;;;;;;;;;4990420;28;20022;-92
2022/08/29 01:57:11;;;;;;;6.30;2.40;;;;;;;;;;4999684;28;20068;-93
2022/08/29 01:59:37;;;;;;;8.18;1.90;;;;;;;;;;4997734;28;20048;-92
2022/08/29 02:02:19;;;;;;;6.47;1.98;;;;;;;;;;5012135;28;20033;-92
2022/08/29 02:04:46;;;;;;;7.55;1.98;;;;;;;;;;5022757;28;20033;-92
2022/08/29 02:07:16;;;;;;;13.55;2.15;;;;;;;;;;5017095;28;20025;-92
2022/08/29 02:09:42;;;;;;;6.85;2.08;;;;;;;;;;5002759;28;20045;-92
2022/08/29 02:12:09;;;;;;;4.95;2.10;;;;;;;;;;5026972;28;20069;-92
2022/08/29 02:14:35;;;;;;;15.60;2.78;;;;;;;;;;5019467;28;20040;-92
2022/08/29 02:17:02;;;;;;;6.40;2.28;;;;;;;;;;5009685;28;20464;-91
2022/08/29 02:19:28;;;;;;;5.47;2.08;;;;;;;;;;5010833;28;20021;-92
2022/08/29 02:21:54;;;;;;;10.00;2.47;;;;;;;;;;5014295;28;20044;-92
2022/08/29 02:24:20;;;;;;;13.23;2.47;;;;;;;;;;5007616;28;20115;-92
2022/08/29 02:26:46;;;;;;;23.98;3.92;;;;;;;;;;5004686;28;20034;-92
2022/08/29 02:29:12;;;;;;;6.78;2.92;;;;;;;;;;5027752;28;20025;-93
2022/08/29 02:31:40;;;;;;;7.78;2.53;;;;;;;;;;5005620;28;20040;-92
2022/08/29 02:34:09;;;;;;;13.65;3.65;;;;;;;;;;5029440;28;20040;-92
2022/08/29 02:36:36;;;;;;;7.55;2.13;;;;;;;;;;5020845;28;20025;-92
2022/08/29 02:39:02;;;;;;;13.35;2.55;;;;;;;;;;5022161;28;20065;-91
2022/08/29 02:41:28;;;;;;;11.90;2.83;;;;;;;;;;5009255;28;20125;-92
2022/08/29 02:43:55;;;;;;;11.15;2.65;;;;;;;;;;5011052;28;20060;-92
2022/08/29 02:46:21;;;;;;;6.47;2.50;;;;;;;;;;5007143;28;20076;-92
2022/08/29 02:48:47;;;;;;;11.23;2.45;;;;;;;;;;5018166;28;20029;-92
2022/08/29 02:51:24;;;;;;;10.27;2.47;;;;;;;;;;5018896;28;21207;-92
2022/08/29 02:53:51;;;;;;;7.55;2.40;;;;;;;;;;5019703;28;20083;-92
2022/08/29 02:56:18;;;;;;;7.72;2.35;;;;;;;;;;5029224;28;20020;-92
2022/08/29 02:58:45;;;;;;;10.07;2.42;;;;;;;;;;5026503;28;20028;-92
2022/08/29 03:01:11;;;;;;;8.25;2.33;;;;;;;;;;5015577;28;20049;-92
2022/08/29 03:03:37;;;;;;;7.90;2.58;;;;;;;;;;5008141;28;20075;-92
2022/08/29 03:06:03;;;;;;;4.50;2.60;;;;;;;;;;5026767;28;20488;-92
2022/08/29 03:08:29;;;;;;;13.65;4.35;;;;;;;;;;5025350;28;20040;-92
2022/08/29 03:10:55;;;;;;;9.73;2.20;;;;;;;;;;5029545;28;20075;-92
2022/08/29 03:13:22;;;;;;;15.30;2.42;;;;;;;;;;5008822;28;20033;-92
2022/08/29 03:15:48;;;;;;;15.45;4.60;;;;;;;;;;5023728;28;20026;-92
2022/08/29 03:18:14;;;;;;;18.17;3.05;;;;;;;;;;5024804;28;20118;-92
2022/08/29 03:20:41;;;;;;;12.40;3.05;;;;;;;;;;5014504;28;20064;-92
2022/08/29 03:23:07;;;;;;;14.57;2.42;;;;;;;;;;5024148;28;20108;-92
2022/08/29 03:25:33;;;;;;;14.85;3.80;;;;;;;;;;5023710;28;20576;-92
2022/08/29 03:28:00;;;;;;;7.80;2.13;;;;;;;;;;5028426;28;20033;-92
2022/08/29 03:30:26;;;;;;;10.27;3.00;;;;;;;;;;5010186;28;20676;-92
2022/08/29 03:32:53;;;;;;;15.00;2.40;;;;;;;;;;5012307;28;20114;-92
2022/08/29 03:35:21;;;;;;;10.50;2.30;;;;;;;;;;5022122;28;20025;-92
2022/08/29 03:37:47;;;;;;;11.85;2.85;;;;;;;;;;5010004;28;20014;-92
2022/08/29 03:40:14;;;;;;;11.43;2.33;;;;;;;;;;5020380;28;20040;-92
2022/08/29 03:42:41;;;;;;;11.75;2.80;;;;;;;;;;5024537;28;20382;-92
2022/08/29 03:45:10;;;;;;;11.40;2.88;;;;;;;;;;5018680;28;20476;-91
2022/08/29 03:47:42;;;;;;;8.80;2.60;;;;;;;;;;5017910;28;20033;-92
2022/08/29 03:50:09;;;;;;;8.88;2.20;;;;;;;;;;5022239;28;20069;-92
2022/08/29 03:52:35;;;;;;;9.38;2.30;;;;;;;;;;5023023;28;20492;-92
2022/08/29 03:55:02;;;;;;;5.80;2.13;;;;;;;;;;5010234;28;20053;-92
2022/08/29 03:57:31;;;;;;;10.43;2.30;;;;;;;;;;5017266;28;20128;-92
2022/08/29 03:59:58;;;;;;;6.38;2.20;;;;;;;;;;5021516;28;20114;-92
2022/08/29 04:02:24;;;;;;;11.93;2.78;;;;;;;;;;5019966;28;20133;-93
2022/08/29 04:05:08;;;;;;;16.33;2.95;;;;;;;;;;5027210;28;20052;-92
2022/08/29 04:07:51;;;;;;;7.18;2.10;;;;;;;;;;5011728;28;20033;-92
2022/08/29 04:10:19;;;;;;;12.48;2.30;;;;;;;;;;5022369;28;20036;-92
2022/08/29 04:12:45;;;;;;;7.53;2.38;;;;;;;;;;5020063;28;20021;-92
2022/08/29 04:15:11;;;;;;;8.38;2.30;;;;;;;;;;5012100;28;20039;-92
2022/08/29 04:17:37;;;;;;;13.30;2.50;;;;;;;;;;5016525;28;20064;-93
2022/08/29 04:20:04;;;;;;;8.95;2.40;;;;;;;;;;5008711;28;20033;-92
2022/08/29 04:22:30;;;;;;;8.27;2.55;;;;;;;;;;5027400;28;20037;-93
2022/08/29 04:24:56;;;;;;;16.27;2.55;;;;;;;;;;5010191;28;20033;-93
2022/08/29 04:27:22;;;;;;;9.80;2.63;;;;;;;;;;5011741;28;20047;-90
2022/08/29 04:29:48;;;;;;;7.15;2.10;;;;;;;;;;5019730;28;20029;-93
2022/08/29 04:32:16;;;;;;;4.72;1.98;;;;;;;;;;5008244;28;20029;-92
2022/08/29 04:34:42;;;;;;;13.20;2.72;;;;;;;;;;5021417;28;20035;-91
2022/08/29 04:37:08;;;;;;;10.02;2.70;;;;;;;;;;5006648;28;20037;-92
2022/08/29 04:39:35;;;;;;;6.57;2.05;;;;;;;;;;5005308;28;20041;-93
2022/08/29 04:42:01;;;;;;;10.93;2.20;;;;;;;;;;5014380;28;20393;-92
2022/08/29 04:44:27;;;;;;;13.40;3.15;;;;;;;;;;5027944;28;20020;-92
2022/08/29 04:46:53;;;;;;;8.07;2.63;;;;;;;;;;5022537;28;20033;-92
2022/08/29 04:49:20;;;;;;;7.70;3.22;;;;;;;;;;5015700;28;20044;-91
2022/08/29 04:51:46;;;;;;;7.53;2.88;;;;;;;;;;5010395;28;20044;-92
2022/08/29 04:54:12;;;;;;;11.50;2.05;;;;;;;;;;5018704;28;20037;-92
2022/08/29 04:56:38;;;;;;;14.15;2.80;;;;;;;;;;5010458;28;20096;-93
2022/08/29 04:59:11;;;;;;;9.60;2.78;;;;;;;;;;5028090;28;20548;-92
2022/08/29 05:01:45;;;;;;;9.05;2.50;;;;;;;;;;5003539;28;20525;-92
2022/08/29 05:04:12;;;;;;;10.90;2.65;;;;;;;;;;5006066;28;20058;-92
2022/08/29 05:06:38;;;;;;;10.25;2.50;;;;;;;;;;5013044;28;20095;-92
2022/08/29 05:09:04;;;;;;;9.57;2.30;;;;;;;;;;5005966;28;20033;-92
2022/08/29 05:11:31;;;;;;;5.82;2.05;;;;;;;;;;5026829;28;20365;-92
2022/08/29 05:13:58;;;;;;;7.90;2.13;;;;;;;;;;5022024;28;20112;-92
2022/08/29 05:16:24;;;;;;;8.52;2.15;;;;;;;;;;5008494;28;20029;-92
2022/08/29 05:18:51;;;;;;;7.03;2.47;;;;;;;;;;5018901;28;20053;-92
2022/08/29 05:21:25;;;;;;;14.55;2.45;;;;;;;;;;5015432;28;20448;-92
2022/08/29 05:23:52;;;;;;;9.48;2.70;;;;;;;;;;5023745;28;20037;-92
2022/08/29 05:26:18;;;;;;;13.13;2.92;;;;;;;;;;5019420;28;20028;-92
2022/08/29 05:28:45;;;;;;;14.98;3.95;;;;;;;;;;5011705;28;20042;-92
2022/08/29 05:31:13;;;;;;;15.25;3.28;;;;;;;;;;5012939;28;20072;-92
2022/08/29 05:33:39;;;;;;;10.40;2.40;;;;;;;;;;5016560;28;20330;-92
2022/08/29 05:36:05;;;;;;;11.85;2.30;;;;;;;;;;5005877;28;20353;-92
2022/08/29 05:38:32;;;;;;;18.73;2.97;;;;;;;;;;5011600;28;20037;-92
2022/08/29 05:40:58;;;;;;;16.20;2.78;;;;;;;;;;5022813;28;20035;-92
2022/08/29 05:43:24;;;;;;;7.13;2.40;;;;;;;;;;5013804;28;20025;-92
2022/08/29 05:46:00;;;;;;;10.30;2.58;;;;;;;;;;5012928;28;20084;-93
2022/08/29 05:48:26;;;;;;;;;;;;;;;;;;5024893;28;20496;-93
2022/08/29 05:50:52;;;;;;;13.07;1.98;;;;;;;;;;5024522;28;19968;-92
2022/08/29 05:53:18;;;;;;;8.32;2.38;;;;;;;;;;5026584;28;20036;-93
2022/08/29 05:55:44;;;;;;;15.48;2.45;;;;;;;;;;5010048;28;20049;-93
2022/08/29 05:58:11;;;;;;;5.03;2.63;;;;;;;;;;5022353;28;20466;-93
2022/08/29 06:00:42;;;;;;;6.10;2.55;;;;;;;;;;5023461;28;20106;-92
2022/08/29 06:03:08;;;;;;;11.15;3.15;;;;;;;;;;5027794;28;20080;-93
2022/08/29 06:05:34;;;;;;;15.45;2.60;;;;;;;;;;5021686;28;20468;-93
2022/08/29 06:08:00;;;;;;;9.00;2.92;;;;;;;;;;5025585;28;20115;-93
2022/08/29 06:10:27;;;;;;;14.68;2.78;;;;;;;;;;5013021;28;20037;-92
2022/08/29 06:12:53;;;;;;;11.18;3.03;;;;;;;;;;5017330;28;20369;-93
2022/08/29 06:15:19;;;;;;;11.35;2.75;;;;;;;;;;5014978;28;20496;-93
2022/08/29 06:17:45;;;;;;;11.60;2.83;;;;;;;;;;5012098;28;20025;-91
2022/08/29 06:20:11;;;;;;;14.48;3.28;;;;;;;;;;5021036;28;20067;-92
2022/08/29 06:22:38;;;;;;;11.10;3.08;;;;;;;;;;5021709;28;20053;-92
2022/08/29 06:25:04;;;;;;;10.23;2.65;;;;;;;;;;5021372;28;20035;-92
2022/08/29 06:27:30;;;;;;;6.72;2.53;;;;;;;;;;5021552;28;20664;-92
2022/08/29 06:29:56;;;;;;;16.52;2.72;;;;;;;;;;5012829;28;20033;-93
2022/08/29 06:32:23;;;;;;;7.45;2.45;;;;;;;;;;5009929;28;20612;-92
2022/08/29 06:34:49;;;;;;;10.68;2.72;;;;;;;;;;5019659;28;20025;-92
2022/08/29 06:37:15;;;;;;;12.73;3.17;;;;;;;;;;5021396;28;20128;-93
2022/08/29 06:39:41;;;;;;;10.65;3.70;;;;;;;;;;5020829;28;20020;-93
2022/08/29 06:42:07;;;;;;;8.65;2.90;;;;;;;;;;5013862;28;20094;-93
2022/08/29 06:44:34;;;;;;;10.70;3.10;;;;;;;;;;5020259;28;20516;-92
2022/08/29 06:47:00;;;;;;;10.50;2.58;;;;;;;;;;5027004;28;20377;-92
2022/08/29 06:49:26;;;;;;;8.50;3.15;;;;;;;;;;5010396;28;20107;-92
2022/08/29 06:51:53;;;;;;;10.55;3.45;;;;;;;;;;5021348;28;20034;-92
2022/08/29 06:54:20;;;;;;;21.15;3.38;;;;;;;;;;5010383;28;20657;-92
2022/08/29 06:56:46;;;;;;;13.35;3.55;;;;;;;;;;5023025;28;20305;-92
2022/08/29 06:59:12;;;;;;;12.40;2.80;;;;;;;;;;5021637;28;20348;-92
2022/08/29 07:01:43;;;;;;;16.25;3.53;;;;;;;;;;5015890;28;20064;-93
2022/08/29 07:04:09;;;;;;;9.82;2.97;;;;;;;;;;5022442;28;20033;-92
2022/08/29 07:06:36;;;;;;;14.32;4.25;;;;;;;;;;5034003;28;20106;-92
2022/08/29 07:09:03;;;;;;;21.77;3.58;;;;;;;;;;5009049;28;20732;-92
2022/08/29 07:11:30;;;;;;;18.00;4.05;;;;;;;;;;5024014;28;20028;-92
2022/08/29 07:13:57;;;;;;;11.02;2.88;;;;;;;;;;5008570;28;20036;-92
2022/08/29 07:16:23;;;;;;;14.18;3.13;;;;;;;;;;5021276;28;20476;-92
2022/08/29 07:18:50;;;;;;;10.30;2.75;;;;;;;;;;5020955;28;20049;-92
2022/08/29 07:21:17;;;;;;;8.45;3.08;;;;;;;;;;5020152;28;20036;-93
2022/08/29 07:23:43;;;;;;;7.80;3.22;;;;;;;;;;5023952;28;20036;-93
2022/08/29 07:26:10;;;;;;;13.43;3.80;;;;;;;;;;5008162;28;20494;-93
2022/08/29 07:28:36;;;;;;;11.60;3.30;;;;;;;;;;5021628;28;20095;-93
2022/08/29 07:31:03;;;;;;;13.43;3.22;;;;;;;;;;5020189;28;20417;-93
2022/08/29 07:33:30;;;;;;;11.15;2.95;;;;;;;;;;5022230;28;20036;-93
2022/08/29 07:35:56;;;;;;;12.65;2.58;;;;;;;;;;5005553;28;20075;-92
2022/08/29 07:38:22;;;;;;;19.67;4.25;;;;;;;;;;5007414;28;20029;-93
2022/08/29 07:40:48;;;;;;;14.02;3.67;;;;;;;;;;5022392;28;20029;-92
2022/08/29 07:43:14;;;;;;;16.10;3.58;;;;;;;;;;5026995;28;20082;-92
2022/08/29 07:45:40;;;;;;;18.23;3.30;;;;;;;;;;5020484;28;20531;-92
2022/08/29 07:48:06;;;;;;;12.07;3.38;;;;;;;;;;5017046;28;20044;-92
2022/08/29 07:50:32;;;;;;;13.70;5.13;;;;;;;;;;5012449;28;20041;-92
2022/08/29 07:52:58;;;;;;;14.15;5.13;;;;;;;;;;5009044;28;20385;-91
2022/08/29 07:55:25;;;;;;;14.32;4.80;;;;;;;;;;5027046;28;20045;-94
2022/08/29 07:57:52;;;;;;;12.30;3.30;;;;;;;;;;5008639;28;20032;-89
2022/08/29 08:00:18;;;;;;;12.63;3.22;;;;;;;;;;5027264;28;20144;-92
2022/08/29 08:02:44;;;;;;;15.15;4.03;;;;;;;;;;5023347;28;20037;-90
2022/08/29 08:05:10;;;;;;;14.82;3.83;;;;;;;;;;5020526;28;20053;-91
2022/08/29 08:08:08;;;;;;;20.67;4.30;;;;;;;;;;5024490;28;20037;-96
2022/08/29 08:10:35;;;;;;;11.88;3.67;;;;;;;;;;5024075;23;20066;-91
2022/08/29 08:13:01;;;;;;;18.08;3.45;;;;;;;;;;4970996;28;20409;-90
2022/08/29 08:15:27;;;;;;;13.45;3.40;;;;;;;;;;4984621;28;20030;-90
2022/08/29 08:17:53;;;;;;;16.02;4.47;;;;;;;;;;4965902;28;20038;-90
2022/08/29 08:20:19;;;;;;;18.35;3.78;;;;;;;;;;4993334;28;20033;-89
2022/08/29 08:22:45;;;;;;;13.23;3.58;;;;;;;;;;4991545;28;20134;-89
2022/08/29 08:25:11;;;;;;;12.35;3.17;;;;;;;;;;4972831;28;20302;-89
2022/08/29 08:27:37;;;;;;;13.95;3.72;;;;;;;;;;4989080;28;20037;-89
2022/08/29 08:30:04;;;;;;;18.20;3.70;;;;;;;;;;4972373;28;20481;-89
2022/08/29 08:32:30;;;;;;;11.00;3.50;;;;;;;;;;4976400;28;20026;-89
2022/08/29 08:34:56;;;;;;;15.10;4.28;;;;;;;;;;4972518;28;20085;-89
2022/08/29 08:37:22;;;;;;;15.77;3.47;;;;;;;;;;4969633;28;20141;-89
2022/08/29 08:39:48;;;;;;;12.73;3.83;;;;;;;;;;4970861;28;20052;-88
2022/08/29 08:42:21;;;;;;;16.08;3.45;;;;;;;;;;4969327;28;20042;-89
2022/08/29 08:45:01;;;;;;;10.63;3.55;;;;;;;;;;4969076;28;20153;-89
2022/08/29 08:47:30;;;;;;;15.40;4.13;;;;;;;;;;4984407;28;20486;-88
2022/08/29 08:49:58;;;;;;;18.75;4.22;;;;;;;;;;4981424;28;20509;-88
2022/08/29 08:52:33;;;;;;;14.48;3.45;;;;;;;;;;4963312;28;20065;-88
2022/08/29 08:55:01;;;;;;;17.45;4.03;;;;;;;;;;4963939;28;20026;-88
2022/08/29 08:57:31;;;;;;;11.25;3.40;;;;;;;;;;4982108;28;20031;-88
2022/08/29 08:59:58;;;;;;;14.52;3.53;;;;;;;;;;4969073;28;20498;-88
2022/08/29 09:02:44;;;;;;;8.48;2.97;;;;;;;;;;4981872;28;20112;-88
2022/08/29 09:05:23;;;;;;;11.65;3.47;;;;;;;;;;4965351;28;20096;-88
2022/08/29 09:08:00;;;;;;;9.85;3.63;;;;;;;;;;4969597;28;20045;-88
2022/08/29 09:10:47;;;;;;;13.48;3.03;;;;;;;;;;4959936;28;20116;-88
2022/08/29 09:13:34;;;;;;;11.45;3.30;;;;;;;;;;4951221;28;20093;-88
2022/08/29 09:16:04;;;;;;;13.35;3.72;;;;;;;;;;4975316;28;20034;-87
2022/08/29 09:18:33;;;;;;;14.55;3.75;;;;;;;;;;4965825;28;20171;-88
2022/08/29 09:21:00;;;;;;;6.53;3.17;;;;;;;;;;4963657;28;20435;-88
2022/08/29 09:23:42;;;;;;;12.70;3.50;;;;;;;;;;4967343;28;20065;-90
2022/08/29 09:26:08;;;;;;;11.95;3.40;;;;;;;;;;4960226;28;20084;-90
2022/08/29 09:28:34;;;;;;;12.32;3.70;;;;;;;;;;4982282;28;20037;-90
2022/08/29 09:31:15;;;;;;;9.88;3.33;;;;;;;;;;4948372;28;20375;-90
2022/08/29 09:33:48;;;;;;;11.48;3.55;;;;;;;;;;4968882;28;20050;-90
2022/08/29 09:36:16;;;;;;;12.48;3.78;;;;;;;;;;4980786;28;20504;-90
2022/08/29 09:38:42;;;;;;;13.32;3.75;;;;;;;;;;4964637;28;20026;-90
2022/08/29 09:41:09;;;;;;;13.18;4.65;;;;;;;;;;4978636;28;20418;-90
2022/08/29 09:43:38;;;;;;;12.77;3.83;;;;;;;;;;4978656;28;20433;-90
2022/08/29 09:46:10;;;;;;;13.13;3.45;;;;;;;;;;4964997;28;20445;-90
2022/08/29 09:48:37;;;;;;;11.60;2.95;;;;;;;;;;4971735;28;20508;-90
2022/08/29 09:51:24;;;;;;;8.05;3.28;;;;;;;;;;4966727;28;20161;-90
2022/08/29 09:53:53;;;;;;;16.50;3.70;;;;;;;;;;4966795;28;20035;-90
2022/08/29 09:56:23;;;;;;;13.20;3.17;;;;;;;;;;4950976;28;20060;-90
2022/08/29 09:59:04;;;;;;;9.18;3.28;;;;;;;;;;4963075;28;20260;-89
2022/08/29 10:01:31;;;;;;;8.50;3.20;;;;;;;;;;4964247;28;20034;-89
2022/08/29 10:03:57;;;;;;;7.57;3.35;;;;;;;;;;4946975;28;20371;-89
2022/08/29 10:06:24;;;;;;;10.75;3.17;;;;;;;;;;4960775;28;20041;-89
2022/08/29 10:09:07;;;;;;;7.03;2.80;;;;;;;;;;4964135;28;20475;-89
2022/08/29 10:11:41;;;;;;;13.48;3.70;;;;;;;;;;4961436;28;20513;-89
2022/08/29 10:14:10;;;;;;;12.60;4.10;;;;;;;;;;4950101;28;20030;-89
2022/08/29 10:16:49;;;;;;;11.10;3.13;;;;;;;;;;4961875;28;20502;-89
2022/08/29 10:19:18;;;;;;;11.93;3.35;;;;;;;;;;4960982;28;20054;-89
2022/08/29 10:21:54;;;;;;;14.30;3.10;;;;;;;;;;4967164;28;20061;-90
2022/08/29 10:24:45;;;;;;;13.27;3.20;;;;;;;;;;4962424;28;20559;-90
2022/08/29 10:27:17;;;;;;;17.88;3.30;;;;;;;;;;4959005;28;20042;-89
2022/08/29 10:29:55;;;;;;;11.35;3.35;;;;;;;;;;4943143;28;20064;-90
2022/08/29 10:32:30;;;;;;;8.25;3.38;;;;;;;;;;4960013;28;20119;-88
2022/08/29 10:35:11;;;;;;;12.02;3.78;;;;;;;;;;4962623;28;20039;-88
2022/08/29 10:37:40;;;;;;;10.73;2.78;;;;;;;;;;4960314;28;20031;-88
2022/08/29 10:40:13;;;;;;;19.52;3.65;;;;;;;;;;4951552;28;20035;-88
2022/08/29 10:42:40;;;;;;;13.90;3.22;;;;;;;;;;4967559;28;20045;-88
2022/08/29 10:45:09;;;;;;;17.73;4.20;;;;;;;;;;4948915;28;21538;-88
2022/08/29 10:47:40;;;;;;;19.27;3.45;;;;;;;;;;4959840;28;20436;-88
2022/08/29 10:50:28;;;;;;;13.50;3.20;;;;;;;;;;4952443;28;20047;-88
2022/08/29 10:53:04;;;;;;;10.90;3.08;;;;;;;;;;4946672;28;20035;-87
2022/08/29 10:55:53;;;;;;;8.07;2.28;;;;;;;;;;4950025;28;20027;-88
2022/08/29 10:58:25;;;;;;;14.65;3.75;;;;;;;;;;4939183;28;20122;-89
2022/08/29 11:00:56;;;;;;;14.15;3.35;;;;;;;;;;4941310;28;20125;-88
2022/08/29 11:03:22;;;;;;;13.20;3.60;;;;;;;;;;4947239;28;20035;-88
2022/08/29 11:05:54;;;;;;;8.00;2.70;;;;;;;;;;4961881;28;20057;-88
2022/08/29 11:08:27;;;;;;;11.48;2.97;;;;;;;;;;4946702;28;20042;-88
2022/08/29 11:11:00;;;;;;;11.30;3.50;;;;;;;;;;4957716;28;20379;-88
2022/08/29 11:13:31;;;;;;;9.68;3.10;;;;;;;;;;4968352;28;20022;-88
2022/08/29 11:16:06;;;;;;;9.88;2.90;;;;;;;;;;4975891;28;20433;-87
2022/08/29 11:18:38;;;;;;;12.38;3.08;;;;;;;;;;4980288;28;20026;-88
2022/08/29 11:21:23;;;;;;;13.88;3.35;;;;;;;;;;4964660;28;20038;-89
2022/08/29 11:23:49;;;;;;;6.60;2.85;;;;;;;;;;4982856;28;20542;-89
2022/08/29 11:26:24;;;;;;;9.15;3.05;;;;;;;;;;4945636;28;20529;-88
2022/08/29 11:28:57;;;;;;;9.35;3.20;;;;;;;;;;4979322;28;20569;-89
2022/08/29 11:31:33;;;;;;;11.63;3.20;;;;;;;;;;4976223;28;20054;-88
2022/08/29 11:34:22;;;;;;;10.65;3.20;;;;;;;;;;4959007;28;20026;-89
2022/08/29 11:36:54;;;;;;;9.95;2.55;;;;;;;;;;4962025;28;20034;-88
2022/08/29 11:39:38;;;;;;;9.18;2.80;;;;;;;;;;4977551;28;20553;-89
2022/08/29 11:42:07;;;;;;;11.55;3.88;;;;;;;;;;4969844;28;20066;-88
2022/08/29 11:44:39;;;;;;;10.23;2.92;;;;;;;;;;4967998;28;20054;-88
2022/08/29 11:47:24;;;;;;;14.57;3.50;;;;;;;;;;4965093;28;20026;-88
2022/08/29 11:49:51;;;;;;;6.78;2.75;;;;;;;;;;4982361;28;20034;-88
2022/08/29 11:52:19;;;;;;;9.13;2.30;;;;;;;;;;4968446;28;20046;-88
2022/08/29 11:54:48;;;;;;;8.32;2.75;;;;;;;;;;4984752;28;20054;-88
2022/08/29 11:57:15;;;;;;;6.45;2.72;;;;;;;;;;4962443;28;20101;-88
2022/08/29 11:59:49;;;;;;;7.85;2.45;;;;;;;;;;4981394;28;20686;-87
2022/08/29 12:02:28;;;;;;;8.43;2.88;;;;;;;;;;4969187;28;20053;-88
2022/08/29 12:05:05;;;;;;;4.80;2.38;;;;;;;;;;4960388;28;20512;-88
2022/08/29 12:07:37;;;;;;;11.05;2.58;;;;;;;;;;4960761;28;20038;-88
2022/08/29 12:10:23;;;;;;;9.57;3.40;;;;;;;;;;4967862;28;20034;-88
2022/08/29 12:12:55;;;;;;;10.60;3.13;;;;;;;;;;4967105;28;20030;-88
2022/08/29 12:15:27;;;;;;;6.72;2.45;;;;;;;;;;4963024;28;20026;-88
2022/08/29 12:17:54;;;;;;;13.65;3.15;;;;;;;;;;4968121;28;20035;-88
2022/08/29 12:20:29;;;;;;;7.97;2.63;;;;;;;;;;4967316;28;20070;-88
2022/08/29 12:22:55;;;;;;;10.32;2.95;;;;;;;;;;4968375;28;20034;-87
2022/08/29 12:25:27;;;;;;;7.63;2.75;;;;;;;;;;4958619;28;20062;-88
2022/08/29 12:28:05;;;;;;;9.10;2.50;;;;;;;;;;4985376;28;20471;-88
2022/08/29 12:30:38;;;;;;;12.10;3.30;;;;;;;;;;4982413;28;20057;-88
2022/08/29 12:33:23;;;;;;;7.22;2.78;;;;;;;;;;4973005;28;20031;-88
2022/08/29 12:36:09;;;;;;;11.50;3.35;;;;;;;;;;4969312;28;20401;-88
2022/08/29 12:38:48;;;;;;;10.32;2.78;;;;;;;;;;4967385;28;20500;-87
2022/08/29 12:41:41;;;;;;;8.27;2.33;;;;;;;;;;4978500;28;20034;-88
2022/08/29 12:44:09;;;;;;;7.85;2.78;;;;;;;;;;4969969;28;20046;-87
2022/08/29 12:46:39;;;;;;;13.18;2.83;;;;;;;;;;4987752;28;20037;-88
2022/08/29 12:49:05;;;;;;;6.68;3.20;;;;;;;;;;4983941;28;20034;-88
2022/08/29 12:51:36;;;;;;;9.20;2.78;;;;;;;;;;4985307;28;20779;-88
2022/08/29 12:54:02;;;;;;;11.90;3.05;;;;;;;;;;4971314;28;20022;-88
2022/08/29 12:56:28;;;;;;;13.27;2.83;;;;;;;;;;4964402;28;20035;-88
2022/08/29 12:58:56;;;;;;;9.25;2.50;;;;;;;;;;4950128;28;20026;-88
2022/08/29 13:01:25;;;;;;;10.55;2.63;;;;;;;;;;4971244;28;20093;-88
2022/08/29 13:03:55;;;;;;;12.00;2.85;;;;;;;;;;4987390;28;20474;-88
2022/08/29 13:06:21;;;;;;;11.55;3.10;;;;;;;;;;4982601;28;20455;-88
2022/08/29 13:08:48;;;;;;;16.40;3.17;;;;;;;;;;4965905;28;20028;-88
2022/08/29 13:11:18;;;;;;;6.05;2.70;;;;;;;;;;4948338;28;20045;-88
2022/08/29 13:13:44;;;;;;;10.63;2.42;;;;;;;;;;4952185;28;20037;-88
2022/08/29 13:16:21;;;;;;;6.53;2.45;;;;;;;;;;4965715;28;20070;-87
2022/08/29 13:18:47;;;;;;;16.95;2.97;;;;;;;;;;4953704;28;20090;-88
2022/08/29 13:21:25;;;;;;;13.02;2.60;;;;;;;;;;4934327;28;20550;-88
2022/08/29 13:23:59;;;;;;;8.88;2.85;;;;;;;;;;4957536;28;20020;-88
2022/08/29 13:26:32;;;;;;;9.55;2.13;;;;;;;;;;4947166;28;20123;-88
2022/08/29 13:29:19;;;;;;;9.77;2.33;;;;;;;;;;4961236;28;20023;-88
2022/08/29 13:32:05;;;;;;;7.60;2.40;;;;;;;;;;4937772;28;20053;-88
2022/08/29 13:34:31;;;;;;;4.68;2.10;;;;;;;;;;4943669;28;20054;-88
2022/08/29 13:37:05;;;;;;;6.70;2.03;;;;;;;;;;4939492;28;20043;-88
2022/08/29 13:39:33;;;;;;;8.13;2.10;;;;;;;;;;4958785;28;20109;-88
2022/08/29 13:42:02;;;;;;;4.57;2.28;;;;;;;;;;4941975;28;20035;-88
2022/08/29 13:44:52;;;;;;;5.25;2.15;;;;;;;;;;4958259;28;20479;-88
2022/08/29 13:47:18;;;;;;;4.72;2.00;;;;;;;;;;4918308;28;20047;-88
2022/08/29 13:49:44;;;;;;;6.47;2.05;;;;;;;;;;4942963;28;20031;-88
2022/08/29 13:52:11;;;;;;;5.63;1.90;;;;;;;;;;4951186;28;20092;-88
2022/08/29 13:54:39;;;;;;;4.82;1.80;;;;;;;;;;4942366;28;20027;-88
2022/08/29 13:57:05;;;;;;;9.30;2.38;;;;;;;;;;4929552;28;20072;-88
2022/08/29 13:59:33;;;;;;;7.70;1.88;;;;;;;;;;4954717;28;20565;-88
2022/08/29 14:02:00;;;;;;;7.00;2.25;;;;;;;;;;4945144;28;20094;-88
2022/08/29 14:04:26;;;;;;;7.68;2.58;;;;;;;;;;4946009;28;20028;-88
2022/08/29 14:06:56;;;;;;;6.25;2.17;;;;;;;;;;4958371;28;20102;-88
2022/08/29 14:09:26;;;;;;;7.47;2.72;;;;;;;;;;4947645;28;20222;-88
2022/08/29 14:11:52;;;;;;;6.88;2.13;;;;;;;;;;4972293;28;20113;-89
2022/08/29 14:14:18;;;;;;;12.00;2.13;;;;;;;;;;4957703;28;20035;-88
2022/08/29 14:16:44;;;;;;;4.80;2.33;;;;;;;;;;4958524;28;20716;-89
2022/08/29 14:19:10;;;;;;;8.27;2.58;;;;;;;;;;4967452;28;22084;-88
2022/08/29 14:21:36;;;;;;;16.17;2.25;;;;;;;;;;4959356;28;20039;-88
2022/08/29 14:24:03;;;;;;;7.30;1.95;;;;;;;;;;4965643;28;20043;-88
2022/08/29 14:26:29;;;;;;;5.07;2.25;;;;;;;;;;4968920;28;20409;-88
2022/08/29 14:28:55;;;;;;;7.78;2.15;;;;;;;;;;4960982;28;20065;-88
2022/08/29 14:31:21;;;;;;;8.75;2.60;;;;;;;;;;4970694;28;20068;-88
2022/08/29 14:33:47;;;;;;;4.13;1.90;;;;;;;;;;4970095;28;20077;-89
2022/08/29 14:36:13;;;;;;;5.63;2.03;;;;;;;;;;4975346;28;20039;-88
2022/08/29 14:38:39;;;;;;;11.63;2.40;;;;;;;;;;4948413;28;20045;-88
2022/08/29 14:41:05;;;;;;;6.20;2.60;;;;;;;;;;4959237;28;20172;-88
2022/08/29 14:43:31;;;;;;;10.18;2.10;;;;;;;;;;4963958;28;20035;-88
2022/08/29 14:45:57;;;;;;;6.00;2.22;;;;;;;;;;4954106;28;20081;-88
2022/08/29 14:48:23;;;;;;;3.75;2.00;;;;;;;;;;4959023;28;20066;-88